createdAt,value
2019-05-02T00:00:12.983Z,7.84
2019-05-02T00:02:41.901Z,7.73
2019-05-02T00:05:11.488Z,7.54
2019-05-02T00:07:41.847Z,7.49
2019-05-02T00:10:13.483Z,7.64
2019-05-02T00:12:43.235Z,7.59
2019-05-02T00:15:14.962Z,7.48
2019-05-02T00:17:43.586Z,7.40
2019-05-02T00:20:13.890Z,7.43
2019-05-02T00:22:42.503Z,7.30
2019-05-02T00:25:16.078Z,7.36
2019-05-02T00:27:41.894Z,7.19
2019-05-02T00:30:12.692Z,7.21
2019-05-02T00:32:41.322Z,7.22
2019-05-02T00:35:09.925Z,7.18
2019-05-02T00:37:38.552Z,7.11
2019-05-02T00:40:07.689Z,7.13
2019-05-02T00:42:36.331Z,7.03
2019-05-02T00:45:05.226Z,7.08
2019-05-02T00:47:49.814Z,7.06
2019-05-02T00:50:18.848Z,6.97
2019-05-02T00:52:47.599Z,6.74
2019-05-02T00:55:16.239Z,6.70
2019-05-02T00:57:44.701Z,6.69
2019-05-02T01:00:18.190Z,6.69
2019-05-02T01:02:49.674Z,6.66
2019-05-02T01:05:18.303Z,6.61
2019-05-02T01:07:46.921Z,6.53
2019-05-02T01:10:17.334Z,6.51
2019-05-02T01:12:46.244Z,6.46
2019-05-02T01:15:14.986Z,6.37
2019-05-02T01:17:43.507Z,6.37
2019-05-02T01:20:12.468Z,6.31
2019-05-02T01:22:41.196Z,6.29
2019-05-02T01:25:15.009Z,6.37
2019-05-02T01:27:46.873Z,6.26
2019-05-02T01:30:44.566Z,6.18
2019-05-02T01:33:28.324Z,6.14
2019-05-02T01:36:25.620Z,6.14
2019-05-02T01:38:54.159Z,6.22
2019-05-02T01:41:23.967Z,6.16
2019-05-02T01:43:55.068Z,6.15
2019-05-02T01:46:24.195Z,6.13
2019-05-02T01:48:52.857Z,6.11
2019-05-02T01:51:21.359Z,6.10
2019-05-02T01:53:49.898Z,6.07
2019-05-02T01:56:18.514Z,6.03
2019-05-02T01:58:47.042Z,6.04
2019-05-02T02:01:16.219Z,6.03
2019-05-02T02:03:46.982Z,5.95
2019-05-02T02:06:15.788Z,5.92
2019-05-02T02:08:44.528Z,5.88
2019-05-02T02:11:13.141Z,5.88
2019-05-02T02:13:41.758Z,5.96
2019-05-02T02:16:10.501Z,5.91
2019-05-02T02:18:45.235Z,5.89
2019-05-02T02:21:31.051Z,5.75
2019-05-02T02:24:06.940Z,5.79
2019-05-02T02:26:35.481Z,5.74
2019-05-02T02:29:07.884Z,5.71
2019-05-02T02:31:39.723Z,5.68
2019-05-02T02:34:05.326Z,5.59
2019-05-02T02:36:34.696Z,5.65
2019-05-02T02:39:06.832Z,5.63
2019-05-02T02:41:36.571Z,5.79
2019-05-02T02:44:33.574Z,5.75
2019-05-02T02:47:04.524Z,5.72
2019-05-02T02:49:33.066Z,5.87
2019-05-02T02:52:04.933Z,5.81
2019-05-02T02:54:36.580Z,5.84
2019-05-02T02:57:03.238Z,5.97
2019-05-02T02:59:31.755Z,5.75
2019-05-02T03:02:09.214Z,5.77
2019-05-02T03:04:30.835Z,5.84
2019-05-02T03:06:59.550Z,6.02
2019-05-02T03:09:29.101Z,6.17
2019-05-02T03:12:17.519Z,6.16
2019-05-02T03:14:51.118Z,6.17
2019-05-02T03:17:26.429Z,6.25
2019-05-02T03:19:54.333Z,6.66
2019-05-02T03:22:21.077Z,6.61
2019-05-02T03:24:49.616Z,6.58
2019-05-02T03:27:18.249Z,6.54
2019-05-02T03:29:46.864Z,6.57
2019-05-02T03:32:30.169Z,6.56
2019-05-02T03:34:51.698Z,6.61
2019-05-02T03:37:16.868Z,6.79
2019-05-02T03:39:49.534Z,6.98
2019-05-02T03:42:17.247Z,6.91
2019-05-02T03:44:54.906Z,6.92
2019-05-02T03:47:16.565Z,6.81
2019-05-02T03:49:48.539Z,6.71
2019-05-02T03:52:16.032Z,6.59
2019-05-02T03:54:49.959Z,6.43
2019-05-02T03:57:15.365Z,6.32
2019-05-02T03:59:43.988Z,6.32
2019-05-02T04:02:20.361Z,6.34
2019-05-02T04:04:45.023Z,6.37
2019-05-02T04:07:14.236Z,6.53
2019-05-02T04:09:42.957Z,6.65
2019-05-02T04:12:18.664Z,6.71
2019-05-02T04:14:42.250Z,6.77
2019-05-02T04:17:11.067Z,6.71
2019-05-02T04:19:40.309Z,6.71
2019-05-02T04:22:11.949Z,6.73
2019-05-02T04:24:40.817Z,6.72
2019-05-02T04:27:10.529Z,6.54
2019-05-02T04:29:39.293Z,6.49
2019-05-02T04:32:11.836Z,6.44
2019-05-02T04:34:38.486Z,6.41
2019-05-02T04:37:06.997Z,6.47
2019-05-02T04:39:38.846Z,6.43
2019-05-02T04:42:16.341Z,6.41
2019-05-02T04:44:47.827Z,6.43
2019-05-02T04:47:16.669Z,6.50
2019-05-02T04:49:39.294Z,6.64
2019-05-02T04:52:11.648Z,6.84
2019-05-02T04:54:39.045Z,6.82
2019-05-02T04:57:08.545Z,6.92
2019-05-02T04:59:39.505Z,7.02
2019-05-02T05:02:08.972Z,7.08
2019-05-02T05:04:42.388Z,7.16
2019-05-02T05:07:09.390Z,7.21
2019-05-02T05:09:39.919Z,7.53
2019-05-02T05:12:08.952Z,7.82
2019-05-02T05:14:41.266Z,7.80
2019-05-02T05:17:08.124Z,7.76
2019-05-02T05:19:37.347Z,7.89
2019-05-02T05:22:08.810Z,7.94
2019-05-02T05:24:42.608Z,7.86
2019-05-02T05:27:13.172Z,7.93
2019-05-02T05:29:41.953Z,8.13
2019-05-02T05:32:10.571Z,8.04
2019-05-02T05:34:39.183Z,8.16
2019-05-02T05:37:09.522Z,8.20
2019-05-02T05:39:43.208Z,8.00
2019-05-02T05:42:10.700Z,8.02
2019-05-02T05:44:39.887Z,8.37
2019-05-02T05:47:12.190Z,8.55
2019-05-02T05:49:39.716Z,8.45
2019-05-02T05:52:08.335Z,8.56
2019-05-02T05:54:38.360Z,8.83
2019-05-02T05:57:07.657Z,9.05
2019-05-02T05:59:38.030Z,8.82
2019-05-02T06:02:13.161Z,8.99
2019-05-02T06:04:38.696Z,8.88
2019-05-02T06:07:07.473Z,8.87
2019-05-02T06:09:36.012Z,8.89
2019-05-02T06:12:04.730Z,8.91
2019-05-02T06:14:34.560Z,8.74
2019-05-02T06:17:03.485Z,9.14
2019-05-02T06:19:31.993Z,9.02
2019-05-02T06:22:00.599Z,9.38
2019-05-02T06:24:29.128Z,9.45
2019-05-02T06:26:57.657Z,9.56
2019-05-02T06:29:26.275Z,9.19
2019-05-02T06:32:00.409Z,9.39
2019-05-02T06:34:28.651Z,9.41
2019-05-02T06:36:57.331Z,9.47
2019-05-02T06:39:27.049Z,9.22
2019-05-02T06:41:57.514Z,9.47
2019-05-02T06:44:26.935Z,9.77
2019-05-02T06:46:59.147Z,9.53
2019-05-02T06:49:26.126Z,9.57
2019-05-02T06:51:56.217Z,9.64
2019-05-02T06:54:25.011Z,10.19
2019-05-02T06:56:53.537Z,9.95
2019-05-02T06:59:22.160Z,9.89
2019-05-02T07:01:52.344Z,9.77
2019-05-02T07:04:22.885Z,9.86
2019-05-02T07:06:58.862Z,9.39
2019-05-02T07:09:22.542Z,9.93
2019-05-02T07:11:57.473Z,9.82
2019-05-02T07:14:23.604Z,10.07
2019-05-02T07:16:58.969Z,10.22
2019-05-02T07:19:32.180Z,10.42
2019-05-02T07:22:04.182Z,10.43
2019-05-02T07:24:32.713Z,10.47
2019-05-02T07:27:02.359Z,10.44
2019-05-02T07:29:31.435Z,10.75
2019-05-02T07:32:00.060Z,10.58
2019-05-02T07:34:28.553Z,10.72
2019-05-02T07:36:57.180Z,10.73
2019-05-02T07:39:25.874Z,10.60
2019-05-02T07:41:54.483Z,11.01
2019-05-02T07:44:27.266Z,11.26
2019-05-02T07:46:56.897Z,11.35
2019-05-02T07:49:26.614Z,11.30
2019-05-02T07:51:57.637Z,11.21
2019-05-02T07:54:26.798Z,11.16
2019-05-02T07:56:55.459Z,10.39
2019-05-02T07:59:25.128Z,10.02
2019-05-02T08:01:53.897Z,10.75
2019-05-02T08:04:22.580Z,11.27
2019-05-02T08:06:51.090Z,11.36
2019-05-02T08:09:19.847Z,11.56
2019-05-02T08:11:48.520Z,11.79
2019-05-02T08:14:17.145Z,11.52
2019-05-02T08:16:45.824Z,11.63
2019-05-02T08:19:14.315Z,11.72
2019-05-02T08:21:42.816Z,12.05
2019-05-02T08:24:11.878Z,11.96
2019-05-02T08:26:58.384Z,11.64
2019-05-02T08:29:28.918Z,12.30
2019-05-02T08:31:57.712Z,12.94
2019-05-02T08:34:30.957Z,13.75
2019-05-02T08:37:03.289Z,14.10
2019-05-02T08:39:33.754Z,14.98
2019-05-02T08:42:01.338Z,15.86
2019-05-02T08:44:29.860Z,15.56
2019-05-02T08:46:58.483Z,15.82
2019-05-02T08:49:27.136Z,15.89
2019-05-02T08:51:55.741Z,16.04
2019-05-02T08:54:27.949Z,16.59
2019-05-02T08:56:59.198Z,16.54
2019-05-02T08:59:26.206Z,17.28
2019-05-02T09:01:54.994Z,16.62
2019-05-02T09:04:24.256Z,16.33
2019-05-02T09:06:58.696Z,16.78
2019-05-02T09:09:27.959Z,16.67
2019-05-02T09:12:06.884Z,16.98
2019-05-02T09:14:25.270Z,17.70
2019-05-02T09:16:53.889Z,17.54
2019-05-02T09:19:26.465Z,16.48
2019-05-02T09:21:52.863Z,16.25
2019-05-02T09:24:23.973Z,17.70
2019-05-02T09:26:52.053Z,18.42
2019-05-02T09:29:22.239Z,17.94
2019-05-02T09:31:52.694Z,19.58
2019-05-02T09:34:22.924Z,18.00
2019-05-02T09:36:52.928Z,18.33
2019-05-02T09:39:22.732Z,19.04
2019-05-02T09:41:52.655Z,18.18
2019-05-02T09:44:22.451Z,18.31
2019-05-02T09:46:53.073Z,18.24
2019-05-02T09:49:22.159Z,17.40
2019-05-02T09:51:59.175Z,17.47
2019-05-02T09:54:23.104Z,17.91
2019-05-02T09:56:52.485Z,18.59
2019-05-02T09:59:32.847Z,18.72
2019-05-02T10:02:03.379Z,18.30
2019-05-02T10:04:32.558Z,19.87
2019-05-02T10:07:02.521Z,20.45
2019-05-02T10:09:32.413Z,20.48
2019-05-02T10:12:02.112Z,18.78
2019-05-02T10:14:33.012Z,19.66
2019-05-02T10:17:07.005Z,22.22
2019-05-02T10:19:33.227Z,22.51
2019-05-02T10:22:02.075Z,22.30
2019-05-02T10:24:32.220Z,20.46
2019-05-02T10:27:04.175Z,21.53
2019-05-02T10:29:32.917Z,23.47
2019-05-02T10:32:01.896Z,21.38
2019-05-02T10:34:32.787Z,19.49
2019-05-02T10:37:02.940Z,19.08
2019-05-02T10:39:34.029Z,21.49
2019-05-02T10:42:02.375Z,19.44
2019-05-02T10:44:32.633Z,19.53
2019-05-02T10:47:02.902Z,18.79
2019-05-02T10:49:43.711Z,19.99
2019-05-02T10:52:12.369Z,18.85
2019-05-02T10:54:42.175Z,21.47
2019-05-02T10:57:12.623Z,20.97
2019-05-02T10:59:42.056Z,23.35
2019-05-02T11:02:42.485Z,20.73
2019-05-02T11:05:16.910Z,21.93
2019-05-02T11:07:47.866Z,20.79
2019-05-02T11:10:16.716Z,19.96
2019-05-02T11:12:56.323Z,19.96
2019-05-02T11:15:43.915Z,19.26
2019-05-02T11:18:13.116Z,20.07
2019-05-02T11:20:42.190Z,19.85
2019-05-02T11:23:12.675Z,20.56
2019-05-02T11:25:42.121Z,18.85
2019-05-02T11:28:12.421Z,18.41
2019-05-02T11:30:42.300Z,20.25
2019-05-02T11:33:13.352Z,23.63
2019-05-02T11:35:48.784Z,23.63
2019-05-02T11:38:25.963Z,22.63
2019-05-02T11:40:42.661Z,20.00
2019-05-02T11:43:11.617Z,20.00
2019-05-02T11:45:40.228Z,20.02
2019-05-02T11:48:11.339Z,18.88
2019-05-02T11:50:39.512Z,19.38
2019-05-02T11:53:22.276Z,20.24
2019-05-02T11:55:41.311Z,20.84
2019-05-02T11:58:10.643Z,19.86
2019-05-02T12:00:44.514Z,18.68
2019-05-02T12:03:18.390Z,18.37
2019-05-02T12:05:47.045Z,18.03
2019-05-02T12:08:15.692Z,17.38
2019-05-02T12:10:44.428Z,17.77
2019-05-02T12:13:15.930Z,18.51
2019-05-02T12:15:44.393Z,19.41
2019-05-02T12:18:13.026Z,20.18
2019-05-02T12:20:42.539Z,19.25
2019-05-02T12:23:13.000Z,22.15
2019-05-02T12:25:42.295Z,22.15
2019-05-02T12:28:11.973Z,21.71
2019-05-02T12:30:41.873Z,20.81
2019-05-02T12:33:12.256Z,20.23
2019-05-02T12:35:43.304Z,18.95
2019-05-02T12:38:12.295Z,20.07
2019-05-02T12:40:42.197Z,19.30
2019-05-02T12:43:12.029Z,18.00
2019-05-02T12:45:42.180Z,18.55
2019-05-02T12:48:12.983Z,20.44
2019-05-02T12:50:42.004Z,19.29
2019-05-02T12:53:12.615Z,18.70
2019-05-02T12:55:42.161Z,19.27
2019-05-02T12:58:12.497Z,19.76
2019-05-02T13:00:43.105Z,19.75
2019-05-02T13:03:31.691Z,21.42
2019-05-02T13:06:00.579Z,21.52
2019-05-02T13:08:29.503Z,22.53
2019-05-02T13:11:17.900Z,21.38
2019-05-02T13:13:46.690Z,20.45
2019-05-02T13:16:17.365Z,20.04
2019-05-02T13:18:45.990Z,20.12
2019-05-02T13:21:20.818Z,21.67
2019-05-02T13:24:07.529Z,22.35
2019-05-02T13:26:34.355Z,20.13
2019-05-02T13:29:03.138Z,18.27
2019-05-02T13:31:38.258Z,18.61
2019-05-02T13:34:22.258Z,18.11
2019-05-02T13:36:51.925Z,17.97
2019-05-02T13:39:32.647Z,17.22
2019-05-02T13:42:01.767Z,17.51
2019-05-02T13:44:33.108Z,18.38
2019-05-02T13:47:02.707Z,18.65
2019-05-02T13:49:32.429Z,18.48
2019-05-02T13:52:02.514Z,17.93
2019-05-02T13:54:32.960Z,18.21
2019-05-02T13:57:03.135Z,17.52
2019-05-02T13:59:33.727Z,17.40
2019-05-02T14:02:05.187Z,17.14
2019-05-02T14:04:33.957Z,16.77
2019-05-02T14:07:03.147Z,16.53
2019-05-02T14:09:50.853Z,16.25
2019-05-02T14:12:55.028Z,16.21
2019-05-02T14:15:26.761Z,15.83
2019-05-02T14:17:55.507Z,15.43
2019-05-02T14:20:24.218Z,15.16
2019-05-02T14:22:52.998Z,15.62
2019-05-02T14:25:22.336Z,15.64
2019-05-02T14:27:55.324Z,15.50
2019-05-02T14:30:36.012Z,15.39
2019-05-02T14:32:55.235Z,15.13
2019-05-02T14:35:28.302Z,15.11
2019-05-02T14:38:13.777Z,14.82
2019-05-02T14:40:53.455Z,14.82
2019-05-02T14:43:44.494Z,13.94
2019-05-02T14:46:12.461Z,13.72
2019-05-02T14:48:45.272Z,13.75
2019-05-02T14:51:16.562Z,13.68
2019-05-02T14:53:43.468Z,13.30
2019-05-02T14:56:17.699Z,13.15
2019-05-02T14:58:46.419Z,13.18
2019-05-02T15:01:17.138Z,13.11
2019-05-02T15:03:45.557Z,12.92
2019-05-02T15:06:14.183Z,12.87
2019-05-02T15:08:44.899Z,12.67
2019-05-02T15:11:13.354Z,12.87
2019-05-02T15:13:43.672Z,12.59
2019-05-02T15:16:17.768Z,12.59
2019-05-02T15:18:47.540Z,12.85
2019-05-02T15:21:22.349Z,12.72
2019-05-02T15:24:33.346Z,12.63
2019-05-02T15:27:05.530Z,12.57
2019-05-02T15:29:29.406Z,13.02
2019-05-02T15:32:16.485Z,13.06
2019-05-02T15:35:02.386Z,12.97
2019-05-02T15:37:32.160Z,13.27
2019-05-02T15:42:33.961Z,13.21
2019-05-02T15:45:05.597Z,13.01
2019-05-02T15:47:37.070Z,13.37
2019-05-02T15:50:04.523Z,12.89
2019-05-02T15:52:34.975Z,12.89
2019-05-02T15:55:04.379Z,13.08
2019-05-02T15:57:43.136Z,12.94
2019-05-02T16:00:05.773Z,13.27
2019-05-02T16:02:34.315Z,12.89
2019-05-02T16:05:05.426Z,13.10
2019-05-02T16:07:38.127Z,13.17
2019-05-02T16:10:04.801Z,12.89
2019-05-02T16:12:36.050Z,12.70
2019-05-02T16:15:12.944Z,12.62
2019-05-02T16:17:35.946Z,12.41
2019-05-02T16:20:16.770Z,12.45
2019-05-02T16:22:49.603Z,12.25
2019-05-02T16:25:20.142Z,11.91
2019-05-02T16:27:47.256Z,11.64
2019-05-02T16:30:22.139Z,11.64
2019-05-02T16:32:54.148Z,11.58
2019-05-02T16:35:23.868Z,11.42
2019-05-02T16:37:55.994Z,11.47
2019-05-02T16:40:29.754Z,11.45
2019-05-02T16:42:55.786Z,11.35
2019-05-02T16:45:24.654Z,11.35
2019-05-02T16:47:58.626Z,11.26
2019-05-02T16:50:27.468Z,11.29
2019-05-02T16:52:54.477Z,11.36
2019-05-02T16:55:26.607Z,11.21
2019-05-02T16:57:56.621Z,11.18
2019-05-02T17:00:24.869Z,10.94
2019-05-02T17:02:53.596Z,11.03
2019-05-02T17:05:22.335Z,11.11
2019-05-02T17:08:10.857Z,11.00
2019-05-02T17:10:52.086Z,11.25
2019-05-02T17:13:17.681Z,11.05
2019-05-02T17:15:46.330Z,11.02
2019-05-02T17:18:17.995Z,11.07
2019-05-02T17:20:46.970Z,10.89
2019-05-02T17:23:16.193Z,10.73
2019-05-02T17:25:44.904Z,10.74
2019-05-02T17:28:13.516Z,10.60
2019-05-02T17:30:43.062Z,10.73
2019-05-02T17:33:15.902Z,10.86
2019-05-02T17:35:49.360Z,10.94
2019-05-02T17:38:12.710Z,10.98
2019-05-02T17:40:42.205Z,10.90
2019-05-02T17:43:11.031Z,11.04
2019-05-02T17:45:40.315Z,10.95
2019-05-02T17:48:15.689Z,11.01
2019-05-02T17:50:59.550Z,10.94
2019-05-02T17:53:33.781Z,10.90
2019-05-02T17:55:59.227Z,11.00
2019-05-02T17:58:27.743Z,11.06
2019-05-02T18:01:00.162Z,10.92
2019-05-02T18:03:31.131Z,11.03
2019-05-02T18:05:59.373Z,10.97
2019-05-02T18:08:27.981Z,10.94
2019-05-02T18:11:00.137Z,11.08
2019-05-02T18:13:29.174Z,11.11
2019-05-02T18:15:57.521Z,11.02
2019-05-02T18:18:26.165Z,11.04
2019-05-02T18:20:54.803Z,11.11
2019-05-02T18:23:27.391Z,11.00
2019-05-02T18:25:57.411Z,10.97
2019-05-02T18:28:26.430Z,10.99
2019-05-02T18:30:57.181Z,10.96
2019-05-02T18:33:25.386Z,10.92
2019-05-02T18:35:54.120Z,11.05
2019-05-02T18:38:22.758Z,11.04
2019-05-02T18:40:52.450Z,11.08
2019-05-02T18:43:22.387Z,10.97
2019-05-02T18:45:51.604Z,10.91
2019-05-02T18:48:21.832Z,10.95
2019-05-02T18:50:52.616Z,10.96
2019-05-02T18:53:25.708Z,10.91
2019-05-02T18:55:52.247Z,10.93
2019-05-02T18:58:22.714Z,10.85
2019-05-02T19:00:52.101Z,10.90
2019-05-02T19:03:22.860Z,10.81
2019-05-02T19:05:56.673Z,10.80
2019-05-02T19:08:29.141Z,10.77
2019-05-02T19:11:04.744Z,10.70
2019-05-02T19:13:23.519Z,10.71
2019-05-02T19:15:53.443Z,10.75
2019-05-02T19:18:22.438Z,10.75
2019-05-02T19:21:00.342Z,10.65
2019-05-02T19:23:31.982Z,10.70
2019-05-02T19:26:02.314Z,10.63
2019-05-02T19:29:02.301Z,10.62
2019-05-02T19:31:44.401Z,10.69
2019-05-02T19:34:07.460Z,10.73
2019-05-02T19:36:36.174Z,10.80
2019-05-02T19:39:09.835Z,10.72
2019-05-02T19:41:39.021Z,10.73
2019-05-02T19:44:08.448Z,10.63
2019-05-02T19:46:38.871Z,10.67
2019-05-02T19:49:12.483Z,10.59
2019-05-02T19:51:38.388Z,10.59
2019-05-02T19:54:07.213Z,10.58
2019-05-02T19:56:45.331Z,10.63
2019-05-02T19:59:06.586Z,10.54
2019-05-02T20:01:35.392Z,10.52
2019-05-02T20:04:06.101Z,10.45
2019-05-02T20:06:34.865Z,10.49
2019-05-02T20:09:08.288Z,10.45
2019-05-02T20:11:36.317Z,10.38
2019-05-02T20:14:09.302Z,10.43
2019-05-02T20:16:45.788Z,10.42
2019-05-02T20:19:17.274Z,10.37
2019-05-02T20:21:57.149Z,10.39
2019-05-02T20:24:49.160Z,10.19
2019-05-02T20:27:15.444Z,10.03
2019-05-02T20:29:44.417Z,9.93
2019-05-02T20:32:13.129Z,9.70
2019-05-02T20:34:41.936Z,9.49
2019-05-02T20:37:12.610Z,9.36
2019-05-02T20:39:41.628Z,9.26
2019-05-02T20:42:12.103Z,9.15
2019-05-02T20:44:41.891Z,9.07
2019-05-02T20:47:14.112Z,8.94
2019-05-02T20:49:42.640Z,8.90
2019-05-02T20:52:11.937Z,8.88
2019-05-02T20:54:42.679Z,8.74
2019-05-02T20:57:11.998Z,8.65
2019-05-02T20:59:41.701Z,8.69
2019-05-02T21:02:12.242Z,8.54
2019-05-02T21:04:42.541Z,8.53
2019-05-02T21:07:19.010Z,8.45
2019-05-02T21:09:54.204Z,8.47
2019-05-02T21:12:22.910Z,8.50
2019-05-02T21:14:52.320Z,8.44
2019-05-02T21:17:22.077Z,8.42
2019-05-02T21:19:50.804Z,8.41
2019-05-02T21:22:24.157Z,8.43
2019-05-02T21:24:53.018Z,8.49
2019-05-02T21:27:21.911Z,8.51
2019-05-02T21:29:52.254Z,8.44
2019-05-02T21:32:22.926Z,8.47
2019-05-02T21:34:52.025Z,8.41
2019-05-02T21:37:22.619Z,8.46
2019-05-02T21:39:52.069Z,8.47
2019-05-02T21:42:22.556Z,8.59
2019-05-02T21:44:51.824Z,8.70
2019-05-02T21:47:22.319Z,8.69
2019-05-02T21:50:01.825Z,8.66
2019-05-02T21:52:55.967Z,8.53
2019-05-02T21:55:52.068Z,8.50
2019-05-02T21:58:21.589Z,8.55
2019-05-02T22:00:59.314Z,8.48
2019-05-02T22:03:27.849Z,8.47
2019-05-02T22:05:56.748Z,8.44
2019-05-02T22:08:25.404Z,8.47
2019-05-02T22:10:53.928Z,8.46
2019-05-02T22:13:22.573Z,8.45
2019-05-02T22:15:51.656Z,8.36
2019-05-02T22:18:21.633Z,8.25
2019-05-02T22:20:52.245Z,8.21
2019-05-02T22:23:20.911Z,8.16
2019-05-02T22:25:49.456Z,8.19
2019-05-02T22:28:18.000Z,8.09
2019-05-02T22:30:46.520Z,7.92
2019-05-02T22:33:15.041Z,7.99
2019-05-02T22:35:43.693Z,8.00
2019-05-02T22:38:28.254Z,7.98
2019-05-02T22:40:58.169Z,7.96
2019-05-02T22:43:26.684Z,8.04
2019-05-02T22:45:55.196Z,8.08
2019-05-02T22:48:23.834Z,8.26
2019-05-02T22:50:52.387Z,8.28
2019-05-02T22:53:21.605Z,8.29
2019-05-02T22:55:51.801Z,8.34
2019-05-02T22:58:21.888Z,8.40
2019-05-02T23:00:52.227Z,8.43
2019-05-02T23:03:21.501Z,8.49
2019-05-02T23:05:52.612Z,8.48
2019-05-02T23:08:21.954Z,8.51
2019-05-02T23:10:51.937Z,8.56
2019-05-02T23:13:21.976Z,8.67
2019-05-02T23:15:52.154Z,8.61
2019-05-02T23:18:22.686Z,8.56
2019-05-02T23:20:52.610Z,8.53
2019-05-02T23:23:21.583Z,8.46
2019-05-02T23:26:13.811Z,8.48
2019-05-02T23:28:44.563Z,8.51
2019-05-02T23:31:14.060Z,8.42
2019-05-02T23:33:57.913Z,8.49
2019-05-02T23:36:28.240Z,8.47
2019-05-02T23:38:57.404Z,8.51
2019-05-02T23:41:26.141Z,8.57
2019-05-02T23:43:54.880Z,8.58
2019-05-02T23:46:23.605Z,8.59
2019-05-02T23:48:52.685Z,8.44
2019-05-02T23:51:22.588Z,8.38
2019-05-02T23:53:52.794Z,8.26
2019-05-02T23:56:22.146Z,8.37
2019-05-02T23:58:51.948Z,8.36
